Santos — OH3712 — position and weather

sailwx.info

Track history (hours):
 
Tides and Currents Weather Stations Pressure Air Temp Water Temp Dewpoint Dewpoint Depression Visibility Wind Speed Wind Dir Waves Ship Positions

Santos

Last reported at 2018-Jan-11 08:05 UTC. Time now 2018-Jan-20 01:22 UTC.
Position N 60°53' E 018°50'.
Warning: this ship's position is 8 days out of date.

Length 32 m; draft 5.5 m.

Type: Fishing. MMSI: 230061850.

Date/timePositionNaut miles runAvg speedWind from/ knotsBaromVisibWave heightAir tempDewpointWater temp
2018-Jan-11 08:05N 60°53' E 018°50'0 2.4
2018-Jan-11 08:00N 60°53' E 018°50'1 2.4
2018-Jan-11 07:26N 60°52' E 018°52'1 2.3
2018-Jan-11 07:00N 60°52' E 018°53'1 2.2
2018-Jan-11 06:30N 60°51' E 018°55'1 2.2
2018-Jan-11 06:00N 60°50' E 018°55'1 2.3
2018-Jan-11 05:27N 60°49' E 018°57'2 1.8
2018-Jan-11 04:10N 60°51' E 018°56'1 2.4
2018-Jan-11 03:54N 60°51' E 018°55'1 2.4
2018-Jan-11 03:30N 60°52' E 018°55'1 2.4
2018-Jan-11 03:00N 60°53' E 018°55'1 2.4
2018-Jan-11 02:30N 60°55' E 018°55'1 2.4
2018-Jan-11 02:00N 60°56' E 018°56'1 2.0
2018-Jan-11 01:30N 60°57' E 018°57'1 2.2
2018-Jan-11 01:00N 60°56' E 018°58'1 2.3
2018-Jan-11 00:30N 60°55' E 018°58'1 2.3
2018-Jan-11 00:01N 60°53' E 018°59'1 2.3
2018-Jan-10 23:30N 60°52' E 018°60'2 2.3
2018-Jan-10 22:39N 60°51' E 019°02'0 2.4
2018-Jan-10 22:28N 60°50' E 019°02'1 2.3
2018-Jan-10 21:57N 60°49' E 019°01'1 2.3
2018-Jan-10 21:30N 60°48' E 019°01'1 2.3
2018-Jan-10 21:00N 60°47' E 019°03'1 2.3
2018-Jan-10 20:30N 60°47' E 019°06'1 2.3
2018-Jan-10 19:52N 60°47' E 019°09'1 2.3
2018-Jan-10 19:30N 60°47' E 019°10'2 2.2
2018-Jan-10 18:30N 60°47' E 019°14'1 2.2
2018-Jan-10 18:00N 60°48' E 019°16'1 2.5
2018-Jan-10 17:30N 60°48' E 019°19'3 5.2
2018-Jan-10 16:57N 60°48' E 019°25'4 9.9
2018-Jan-10 16:30N 60°48' E 019°34'610.0
2018-Jan-10 15:56N 60°48' E 019°45'910.1
2018-Jan-10 15:04N 60°48' E 020°03'110.2
2018-Jan-10 14:59N 60°48' E 020°05'610.2
2018-Jan-10 14:22N 60°48' E 020°18'810.2
2018-Jan-10 13:33N 60°48' E 020°35'010.0
2018-Jan-10 13:30N 60°48' E 020°36'39 2.6
2018-Jan-09 22:36N 60°48' E 019°15'0 0.7
2018-Jan-09 22:30N 60°48' E 019°15'0 0.7
2018-Jan-09 22:00N 60°49' E 019°16'11 0.5
2018-Jan-09 00:04N 60°45' E 019°36'0 2.4
2018-Jan-09 00:00N 60°45' E 019°36'1 2.4
2018-Jan-08 23:30N 60°44' E 019°37'  
Track history (hours):
 
Tides and Currents Weather Stations Pressure Air Temp Water Temp Dewpoint Dewpoint Depression Visibility Wind Speed Wind Dir Waves Ship Positions

Santos

Last reported at 2018-Jan-11 08:05 UTC. Time now 2018-Jan-20 01:22 UTC.
Position N 60°53' E 018°50'.
Warning: this ship's position is 8 days out of date.

Length 32 m; draft 5.5 m.

Type: Fishing. MMSI: 230061850.

Date/timePositionNaut miles runAvg speedWind from/ knotsBaromVisibWave heightAir tempDewpointWater temp
2018-Jan-11 08:05N 60°53' E 018°50'0 2.4
2018-Jan-11 08:00N 60°53' E 018°50'1 2.4
2018-Jan-11 07:26N 60°52' E 018°52'1 2.3
2018-Jan-11 07:00N 60°52' E 018°53'1 2.2
2018-Jan-11 06:30N 60°51' E 018°55'1 2.2
2018-Jan-11 06:00N 60°50' E 018°55'1 2.3
2018-Jan-11 05:27N 60°49' E 018°57'2 1.8
2018-Jan-11 04:10N 60°51' E 018°56'1 2.4
2018-Jan-11 03:54N 60°51' E 018°55'1 2.4
2018-Jan-11 03:30N 60°52' E 018°55'1 2.4
2018-Jan-11 03:00N 60°53' E 018°55'1 2.4
2018-Jan-11 02:30N 60°55' E 018°55'1 2.4
2018-Jan-11 02:00N 60°56' E 018°56'1 2.0
2018-Jan-11 01:30N 60°57' E 018°57'1 2.2
2018-Jan-11 01:00N 60°56' E 018°58'1 2.3
2018-Jan-11 00:30N 60°55' E 018°58'1 2.3
2018-Jan-11 00:01N 60°53' E 018°59'1 2.3
2018-Jan-10 23:30N 60°52' E 018°60'2 2.3
2018-Jan-10 22:39N 60°51' E 019°02'0 2.4
2018-Jan-10 22:28N 60°50' E 019°02'1 2.3
2018-Jan-10 21:57N 60°49' E 019°01'1 2.3
2018-Jan-10 21:30N 60°48' E 019°01'1 2.3
2018-Jan-10 21:00N 60°47' E 019°03'1 2.3
2018-Jan-10 20:30N 60°47' E 019°06'1 2.3
2018-Jan-10 19:52N 60°47' E 019°09'1 2.3
2018-Jan-10 19:30N 60°47' E 019°10'2 2.2
2018-Jan-10 18:30N 60°47' E 019°14'1 2.2
2018-Jan-10 18:00N 60°48' E 019°16'1 2.5
2018-Jan-10 17:30N 60°48' E 019°19'3 5.2
2018-Jan-10 16:57N 60°48' E 019°25'4 9.9
2018-Jan-10 16:30N 60°48' E 019°34'610.0
2018-Jan-10 15:56N 60°48' E 019°45'910.1
2018-Jan-10 15:04N 60°48' E 020°03'110.2
2018-Jan-10 14:59N 60°48' E 020°05'610.2
2018-Jan-10 14:22N 60°48' E 020°18'810.2
2018-Jan-10 13:33N 60°48' E 020°35'010.0
2018-Jan-10 13:30N 60°48' E 020°36'39 2.6
2018-Jan-09 22:36N 60°48' E 019°15'0 0.7
2018-Jan-09 22:30N 60°48' E 019°15'0 0.7
2018-Jan-09 22:00N 60°49' E 019°16'11 0.5
2018-Jan-09 00:04N 60°45' E 019°36'0 2.4
2018-Jan-09 00:00N 60°45' E 019°36'1 2.4
2018-Jan-08 23:30N 60°44' E 019°37'  

Dump ship's entire track history